sensor_id;sensor_type;location;lat;lon;timestamp;P1;durP1;ratioP1;P2;durP2;ratioP2
22673;SDS011;11504;43.334;21.918;2023-10-09T00:00:19;6.0;;;6.0;;
22673;SDS011;11504;43.334;21.918;2023-10-09T00:04:55;6.0;;;6.0;;
22673;SDS011;11504;43.334;21.918;2023-10-09T00:41:46;5.0;;;4.0;;
22673;SDS011;11504;43.334;21.918;2023-10-09T00:46:22;5.0;;;4.0;;
22673;SDS011;11504;43.334;21.918;2023-10-09T00:51:00;5.0;;;4.0;;
22673;SDS011;11504;43.334;21.918;2023-10-09T00:55:40;5.0;;;4.0;;
22673;SDS011;11504;43.334;21.918;2023-10-09T01:00:18;5.0;;;4.0;;
22673;SDS011;11504;43.334;21.918;2023-10-09T01:04:54;5.0;;;4.0;;
22673;SDS011;11504;43.334;21.918;2023-10-09T01:09:30;5.0;;;4.0;;
22673;SDS011;11504;43.334;21.918;2023-10-09T01:14:07;5.0;;;4.0;;
22673;SDS011;11504;43.334;21.918;2023-10-09T01:18:44;5.0;;;4.0;;
22673;SDS011;11504;43.334;21.918;2023-10-09T01:23:22;5.0;;;4.0;;
22673;SDS011;11504;43.334;21.918;2023-10-09T01:41:52;6.0;;;5.0;;
22673;SDS011;11504;43.334;21.918;2023-10-09T01:46:29;6.0;;;5.0;;
22673;SDS011;11504;43.334;21.918;2023-10-09T01:51:06;6.0;;;5.0;;
22673;SDS011;11504;43.334;21.918;2023-10-09T01:55:48;6.0;;;5.0;;
22673;SDS011;11504;43.334;21.918;2023-10-09T02:00:25;6.0;;;5.0;;
22673;SDS011;11504;43.334;21.918;2023-10-09T02:05:07;6.0;;;5.0;;
22673;SDS011;11504;43.334;21.918;2023-10-09T02:09:43;5.0;;;5.0;;
22673;SDS011;11504;43.334;21.918;2023-10-09T02:14:19;5.0;;;5.0;;
22673;SDS011;11504;43.334;21.918;2023-10-09T02:18:56;6.0;;;5.0;;
22673;SDS011;11504;43.334;21.918;2023-10-09T02:23:36;6.0;;;5.0;;
22673;SDS011;11504;43.334;21.918;2023-10-09T02:28:13;6.0;;;5.0;;
22673;SDS011;11504;43.334;21.918;2023-10-09T02:32:49;6.0;;;5.0;;
22673;SDS011;11504;43.334;21.918;2023-10-09T02:37:27;6.0;;;5.0;;
22673;SDS011;11504;43.334;21.918;2023-10-09T02:42:04;6.0;;;6.0;;
22673;SDS011;11504;43.334;21.918;2023-10-09T02:46:40;6.0;;;6.0;;
22673;SDS011;11504;43.334;21.918;2023-10-09T02:51:19;7.0;;;6.0;;
22673;SDS011;11504;43.334;21.918;2023-10-09T02:55:56;7.0;;;6.0;;
22673;SDS011;11504;43.334;21.918;2023-10-09T03:00:33;6.0;;;6.0;;
22673;SDS011;11504;43.334;21.918;2023-10-09T03:05:09;6.0;;;6.0;;
22673;SDS011;11504;43.334;21.918;2023-10-09T03:09:45;6.0;;;6.0;;
22673;SDS011;11504;43.334;21.918;2023-10-09T03:14:23;6.0;;;6.0;;
22673;SDS011;11504;43.334;21.918;2023-10-09T03:18:59;6.0;;;6.0;;
22673;SDS011;11504;43.334;21.918;2023-10-09T03:23:35;6.0;;;6.0;;
22673;SDS011;11504;43.334;21.918;2023-10-09T03:42:01;6.0;;;5.0;;
22673;SDS011;11504;43.334;21.918;2023-10-09T03:46:37;6.0;;;5.0;;
22673;SDS011;11504;43.334;21.918;2023-10-09T03:51:13;6.0;;;5.0;;
22673;SDS011;11504;43.334;21.918;2023-10-09T03:55:50;6.0;;;5.0;;
22673;SDS011;11504;43.334;21.918;2023-10-09T04:00:30;6.0;;;6.0;;
22673;SDS011;11504;43.334;21.918;2023-10-09T04:05:07;6.0;;;6.0;;
22673;SDS011;11504;43.334;21.918;2023-10-09T04:09:44;7.0;;;7.0;;
22673;SDS011;11504;43.334;21.918;2023-10-09T04:14:20;7.0;;;7.0;;
22673;SDS011;11504;43.334;21.918;2023-10-09T04:18:57;6.0;;;6.0;;
22673;SDS011;11504;43.334;21.918;2023-10-09T04:23:33;6.0;;;6.0;;
22673;SDS011;11504;43.334;21.918;2023-10-09T04:28:11;6.0;;;6.0;;
22673;SDS011;11504;43.334;21.918;2023-10-09T04:32:47;6.0;;;6.0;;
22673;SDS011;11504;43.334;21.918;2023-10-09T04:37:24;6.0;;;6.0;;
22673;SDS011;11504;43.334;21.918;2023-10-09T04:42:01;6.0;;;6.0;;
22673;SDS011;11504;43.334;21.918;2023-10-09T04:46:38;6.0;;;6.0;;
22673;SDS011;11504;43.334;21.918;2023-10-09T05:00:28;8.0;;;8.0;;
22673;SDS011;11504;43.334;21.918;2023-10-09T05:05:07;8.0;;;8.0;;
22673;SDS011;11504;43.334;21.918;2023-10-09T05:09:43;8.0;;;8.0;;
22673;SDS011;11504;43.334;21.918;2023-10-09T05:14:21;8.0;;;8.0;;
22673;SDS011;11504;43.334;21.918;2023-10-09T05:18:58;9.0;;;8.0;;
22673;SDS011;11504;43.334;21.918;2023-10-09T05:23:35;9.0;;;8.0;;
22673;SDS011;11504;43.334;21.918;2023-10-09T05:28:11;9.0;;;8.0;;
22673;SDS011;11504;43.334;21.918;2023-10-09T05:32:48;10.0;;;9.0;;
22673;SDS011;11504;43.334;21.918;2023-10-09T05:37:27;10.0;;;9.0;;
22673;SDS011;11504;43.334;21.918;2023-10-09T05:42:04;8.0;;;7.0;;
22673;SDS011;11504;43.334;21.918;2023-10-09T05:46:40;8.0;;;7.0;;
22673;SDS011;11504;43.334;21.918;2023-10-09T05:51:16;5.0;;;5.0;;
22673;SDS011;11504;43.334;21.918;2023-10-09T05:55:52;5.0;;;5.0;;
22673;SDS011;11504;43.334;21.918;2023-10-09T06:00:29;5.0;;;4.0;;
22673;SDS011;11504;43.334;21.918;2023-10-09T06:05:07;5.0;;;4.0;;
22673;SDS011;11504;43.334;21.918;2023-10-09T06:09:43;5.0;;;4.0;;
22673;SDS011;11504;43.334;21.918;2023-10-09T06:14:23;5.0;;;4.0;;
22673;SDS011;11504;43.334;21.918;2023-10-09T06:18:59;5.0;;;4.0;;
22673;SDS011;11504;43.334;21.918;2023-10-09T06:23:36;5.0;;;4.0;;
22673;SDS011;11504;43.334;21.918;2023-10-09T06:28:12;5.0;;;4.0;;
22673;SDS011;11504;43.334;21.918;2023-10-09T06:32:48;5.0;;;5.0;;
22673;SDS011;11504;43.334;21.918;2023-10-09T06:37:24;5.0;;;5.0;;
22673;SDS011;11504;43.334;21.918;2023-10-09T06:42:01;5.0;;;5.0;;
22673;SDS011;11504;43.334;21.918;2023-10-09T06:46:37;5.0;;;5.0;;
22673;SDS011;11504;43.334;21.918;2023-10-09T07:00:26;6.0;;;6.0;;
22673;SDS011;11504;43.334;21.918;2023-10-09T07:05:03;6.0;;;6.0;;
22673;SDS011;11504;43.334;21.918;2023-10-09T07:09:40;6.0;;;6.0;;
22673;SDS011;11504;43.334;21.918;2023-10-09T07:14:21;6.0;;;6.0;;
22673;SDS011;11504;43.334;21.918;2023-10-09T07:18:58;5.0;;;5.0;;
22673;SDS011;11504;43.334;21.918;2023-10-09T07:23:34;5.0;;;5.0;;
22673;SDS011;11504;43.334;21.918;2023-10-09T07:28:11;5.0;;;5.0;;
22673;SDS011;11504;43.334;21.918;2023-10-09T07:32:48;4.0;;;4.0;;
22673;SDS011;11504;43.334;21.918;2023-10-09T07:37:28;4.0;;;4.0;;
22673;SDS011;11504;43.334;21.918;2023-10-09T07:42:06;4.0;;;4.0;;
22673;SDS011;11504;43.334;21.918;2023-10-09T07:46:42;4.0;;;4.0;;
22673;SDS011;11504;43.334;21.918;2023-10-09T07:51:19;5.0;;;5.0;;
22673;SDS011;11504;43.334;21.918;2023-10-09T07:55:58;5.0;;;5.0;;
22673;SDS011;11504;43.334;21.918;2023-10-09T08:00:34;5.0;;;5.0;;
22673;SDS011;11504;43.334;21.918;2023-10-09T08:05:10;5.0;;;5.0;;
22673;SDS011;11504;43.334;21.918;2023-10-09T08:42:04;8.0;;;6.0;;
22673;SDS011;11504;43.334;21.918;2023-10-09T08:46:40;8.0;;;6.0;;
22673;SDS011;11504;43.334;21.918;2023-10-09T08:51:18;8.0;;;6.0;;
22673;SDS011;11504;43.334;21.918;2023-10-09T08:55:55;8.0;;;6.0;;
22673;SDS011;11504;43.334;21.918;2023-10-09T09:00:32;7.0;;;5.0;;
22673;SDS011;11504;43.334;21.918;2023-10-09T09:05:17;7.0;;;5.0;;
22673;SDS011;11504;43.334;21.918;2023-10-09T09:09:58;6.0;;;4.0;;
22673;SDS011;11504;43.334;21.918;2023-10-09T09:14:37;6.0;;;4.0;;
22673;SDS011;11504;43.334;21.918;2023-10-09T09:19:15;6.0;;;4.0;;
22673;SDS011;11504;43.334;21.918;2023-10-09T09:24:00;6.0;;;4.0;;
22673;SDS011;11504;43.334;21.918;2023-10-09T09:28:52;5.0;;;5.0;;
22673;SDS011;11504;43.334;21.918;2023-10-09T09:33:28;5.0;;;5.0;;
22673;SDS011;11504;43.334;21.918;2023-10-09T09:38:06;5.0;;;5.0;;
22673;SDS011;11504;43.334;21.918;2023-10-09T09:42:43;6.0;;;6.0;;
22673;SDS011;11504;43.334;21.918;2023-10-09T09:47:20;6.0;;;6.0;;
22673;SDS011;11504;43.334;21.918;2023-10-09T09:51:56;6.0;;;6.0;;
22673;SDS011;11504;43.334;21.918;2023-10-09T09:56:38;6.0;;;6.0;;
22673;SDS011;11504;43.334;21.918;2023-10-09T10:01:32;6.0;;;6.0;;
22673;SDS011;11504;43.334;21.918;2023-10-09T10:06:18;6.0;;;6.0;;
22673;SDS011;11504;43.334;21.918;2023-10-09T10:39:51;6.0;;;6.0;;
22673;SDS011;11504;43.334;21.918;2023-10-09T10:44:33;6.0;;;6.0;;
22673;SDS011;11504;43.334;21.918;2023-10-09T10:49:11;6.0;;;6.0;;
22673;SDS011;11504;43.334;21.918;2023-10-09T10:53:52;6.0;;;6.0;;
22673;SDS011;11504;43.334;21.918;2023-10-09T10:58:29;6.0;;;6.0;;
22673;SDS011;11504;43.334;21.918;2023-10-09T11:03:06;6.0;;;6.0;;
22673;SDS011;11504;43.334;21.918;2023-10-09T11:07:42;6.0;;;6.0;;
22673;SDS011;11504;43.334;21.918;2023-10-09T11:12:19;6.0;;;6.0;;
22673;SDS011;11504;43.334;21.918;2023-10-09T11:16:55;6.0;;;6.0;;
22673;SDS011;11504;43.334;21.918;2023-10-09T11:21:32;6.0;;;6.0;;
22673;SDS011;11504;43.334;21.918;2023-10-09T11:26:09;6.0;;;6.0;;
22673;SDS011;11504;43.334;21.918;2023-10-09T11:40:00;7.0;;;5.0;;
22673;SDS011;11504;43.334;21.918;2023-10-09T11:44:42;7.0;;;5.0;;
22673;SDS011;11504;43.334;21.918;2023-10-09T11:49:18;7.0;;;5.0;;
22673;SDS011;11504;43.334;21.918;2023-10-09T11:53:54;7.0;;;5.0;;
22673;SDS011;11504;43.334;21.918;2023-10-09T11:58:30;7.0;;;5.0;;
22673;SDS011;11504;43.334;21.918;2023-10-09T12:03:12;8.0;;;6.0;;
22673;SDS011;11504;43.334;21.918;2023-10-09T12:07:49;8.0;;;6.0;;
22673;SDS011;11504;43.334;21.918;2023-10-09T12:12:25;8.0;;;6.0;;
22673;SDS011;11504;43.334;21.918;2023-10-09T12:17:04;8.0;;;6.0;;
22673;SDS011;11504;43.334;21.918;2023-10-09T12:21:40;8.0;;;7.0;;
22673;SDS011;11504;43.334;21.918;2023-10-09T12:26:16;8.0;;;7.0;;
22673;SDS011;11504;43.334;21.918;2023-10-09T12:30:52;8.0;;;8.0;;
22673;SDS011;11504;43.334;21.918;2023-10-09T12:35:29;8.0;;;8.0;;
22673;SDS011;11504;43.334;21.918;2023-10-09T12:40:09;8.0;;;8.0;;
22673;SDS011;11504;43.334;21.918;2023-10-09T12:44:46;8.0;;;8.0;;
22673;SDS011;11504;43.334;21.918;2023-10-09T12:49:22;8.0;;;7.0;;
22673;SDS011;11504;43.334;21.918;2023-10-09T12:53:59;8.0;;;7.0;;
22673;SDS011;11504;43.334;21.918;2023-10-09T12:58:35;8.0;;;7.0;;
22673;SDS011;11504;43.334;21.918;2023-10-09T13:03:12;10.0;;;8.0;;
22673;SDS011;11504;43.334;21.918;2023-10-09T13:07:48;10.0;;;8.0;;
22673;SDS011;11504;43.334;21.918;2023-10-09T13:12:25;11.0;;;10.0;;
22673;SDS011;11504;43.334;21.918;2023-10-09T13:17:01;11.0;;;10.0;;
22673;SDS011;11504;43.334;21.918;2023-10-09T13:21:38;11.0;;;10.0;;
22673;SDS011;11504;43.334;21.918;2023-10-09T13:26:17;11.0;;;10.0;;
22673;SDS011;11504;43.334;21.918;2023-10-09T13:40:08;7.0;;;7.0;;
22673;SDS011;11504;43.334;21.918;2023-10-09T13:44:44;7.0;;;7.0;;
22673;SDS011;11504;43.334;21.918;2023-10-09T13:49:20;7.0;;;7.0;;
22673;SDS011;11504;43.334;21.918;2023-10-09T13:53:56;7.0;;;7.0;;
22673;SDS011;11504;43.334;21.918;2023-10-09T13:58:33;7.0;;;7.0;;
22673;SDS011;11504;43.334;21.918;2023-10-09T14:03:09;6.0;;;6.0;;
22673;SDS011;11504;43.334;21.918;2023-10-09T14:07:45;6.0;;;6.0;;
22673;SDS011;11504;43.334;21.918;2023-10-09T14:12:22;6.0;;;5.0;;
22673;SDS011;11504;43.334;21.918;2023-10-09T14:16:58;6.0;;;5.0;;
22673;SDS011;11504;43.334;21.918;2023-10-09T14:21:35;6.0;;;5.0;;
22673;SDS011;11504;43.334;21.918;2023-10-09T14:26:11;6.0;;;5.0;;
22673;SDS011;11504;43.334;21.918;2023-10-09T14:30:47;6.0;;;5.0;;
22673;SDS011;11504;43.334;21.918;2023-10-09T14:35:25;6.0;;;5.0;;
22673;SDS011;11504;43.334;21.918;2023-10-09T14:40:01;6.0;;;5.0;;
22673;SDS011;11504;43.334;21.918;2023-10-09T14:44:37;6.0;;;5.0;;
22673;SDS011;11504;43.334;21.918;2023-10-09T15:03:02;6.0;;;5.0;;
22673;SDS011;11504;43.334;21.918;2023-10-09T15:07:39;6.0;;;5.0;;
22673;SDS011;11504;43.334;21.918;2023-10-09T15:12:15;6.0;;;5.0;;
22673;SDS011;11504;43.334;21.918;2023-10-09T15:16:51;6.0;;;5.0;;
22673;SDS011;11504;43.334;21.918;2023-10-09T15:21:27;6.0;;;5.0;;
22673;SDS011;11504;43.334;21.918;2023-10-09T15:26:04;6.0;;;5.0;;
22673;SDS011;11504;43.334;21.918;2023-10-09T15:30:40;6.0;;;5.0;;
22673;SDS011;11504;43.334;21.918;2023-10-09T15:35:17;6.0;;;5.0;;
22673;SDS011;11504;43.334;21.918;2023-10-09T15:39:54;6.0;;;4.0;;
22673;SDS011;11504;43.334;21.918;2023-10-09T15:44:30;6.0;;;4.0;;
22673;SDS011;11504;43.334;21.918;2023-10-09T15:49:07;6.0;;;4.0;;
22673;SDS011;11504;43.334;21.918;2023-10-09T15:53:46;6.0;;;4.0;;
22673;SDS011;11504;43.334;21.918;2023-10-09T15:58:23;6.0;;;4.0;;
22673;SDS011;11504;43.334;21.918;2023-10-09T16:02:59;6.0;;;6.0;;
22673;SDS011;11504;43.334;21.918;2023-10-09T16:07:36;6.0;;;6.0;;
22673;SDS011;11504;43.334;21.918;2023-10-09T16:12:12;7.0;;;7.0;;
22673;SDS011;11504;43.334;21.918;2023-10-09T16:16:49;7.0;;;7.0;;
22673;SDS011;11504;43.334;21.918;2023-10-09T16:21:26;7.0;;;7.0;;
22673;SDS011;11504;43.334;21.918;2023-10-09T16:26:03;7.0;;;7.0;;
22673;SDS011;11504;43.334;21.918;2023-10-09T17:02:52;7.0;;;6.0;;
22673;SDS011;11504;43.334;21.918;2023-10-09T17:07:28;7.0;;;6.0;;
22673;SDS011;11504;43.334;21.918;2023-10-09T17:12:05;7.0;;;6.0;;
22673;SDS011;11504;43.334;21.918;2023-10-09T17:16:41;7.0;;;6.0;;
22673;SDS011;11504;43.334;21.918;2023-10-09T17:21:18;8.0;;;8.0;;
22673;SDS011;11504;43.334;21.918;2023-10-09T17:25:55;8.0;;;8.0;;
22673;SDS011;11504;43.334;21.918;2023-10-09T17:30:31;10.0;;;10.0;;
22673;SDS011;11504;43.334;21.918;2023-10-09T17:35:08;10.0;;;10.0;;
22673;SDS011;11504;43.334;21.918;2023-10-09T17:39:44;12.0;;;11.0;;
22673;SDS011;11504;43.334;21.918;2023-10-09T17:44:21;12.0;;;11.0;;
22673;SDS011;11504;43.334;21.918;2023-10-09T17:48:57;14.0;;;12.0;;
22673;SDS011;11504;43.334;21.918;2023-10-09T17:53:34;14.0;;;12.0;;
22673;SDS011;11504;43.334;21.918;2023-10-09T17:58:11;14.0;;;12.0;;
22673;SDS011;11504;43.334;21.918;2023-10-09T18:02:47;14.0;;;12.0;;
22673;SDS011;11504;43.334;21.918;2023-10-09T18:07:24;14.0;;;12.0;;
22673;SDS011;11504;43.334;21.918;2023-10-09T18:39:50;13.0;;;12.0;;
22673;SDS011;11504;43.334;21.918;2023-10-09T18:44:26;13.0;;;12.0;;
22673;SDS011;11504;43.334;21.918;2023-10-09T18:49:02;13.0;;;12.0;;
22673;SDS011;11504;43.334;21.918;2023-10-09T18:53:39;13.0;;;12.0;;
22673;SDS011;11504;43.334;21.918;2023-10-09T18:58:15;13.0;;;12.0;;
22673;SDS011;11504;43.334;21.918;2023-10-09T19:02:51;13.0;;;12.0;;
22673;SDS011;11504;43.334;21.918;2023-10-09T19:07:27;13.0;;;12.0;;
22673;SDS011;11504;43.334;21.918;2023-10-09T19:12:05;13.0;;;12.0;;
22673;SDS011;11504;43.334;21.918;2023-10-09T19:16:41;13.0;;;12.0;;
22673;SDS011;11504;43.334;21.918;2023-10-09T19:21:17;16.0;;;14.0;;
22673;SDS011;11504;43.334;21.918;2023-10-09T19:25:54;16.0;;;14.0;;
22673;SDS011;11504;43.334;21.918;2023-10-09T19:30:30;19.0;;;17.0;;
22673;SDS011;11504;43.334;21.918;2023-10-09T19:35:07;19.0;;;17.0;;
22673;SDS011;11504;43.334;21.918;2023-10-09T19:39:44;16.0;;;14.0;;
22673;SDS011;11504;43.334;21.918;2023-10-09T19:44:20;16.0;;;14.0;;
22673;SDS011;11504;43.334;21.918;2023-10-09T19:48:56;16.0;;;14.0;;
22673;SDS011;11504;43.334;21.918;2023-10-09T19:53:33;13.0;;;12.0;;
22673;SDS011;11504;43.334;21.918;2023-10-09T19:58:09;13.0;;;12.0;;
22673;SDS011;11504;43.334;21.918;2023-10-09T20:02:45;13.0;;;12.0;;
22673;SDS011;11504;43.334;21.918;2023-10-09T20:07:21;13.0;;;12.0;;
22673;SDS011;11504;43.334;21.918;2023-10-09T20:21:11;9.0;;;8.0;;
22673;SDS011;11504;43.334;21.918;2023-10-09T20:25:59;9.0;;;8.0;;
22673;SDS011;11504;43.334;21.918;2023-10-09T20:30:37;9.0;;;8.0;;
22673;SDS011;11504;43.334;21.918;2023-10-09T20:35:14;9.0;;;8.0;;
22673;SDS011;11504;43.334;21.918;2023-10-09T20:39:50;10.0;;;9.0;;
22673;SDS011;11504;43.334;21.918;2023-10-09T20:44:26;10.0;;;9.0;;
22673;SDS011;11504;43.334;21.918;2023-10-09T20:49:04;10.0;;;9.0;;
22673;SDS011;11504;43.334;21.918;2023-10-09T20:53:40;12.0;;;10.0;;
22673;SDS011;11504;43.334;21.918;2023-10-09T20:58:17;12.0;;;10.0;;
22673;SDS011;11504;43.334;21.918;2023-10-09T21:02:54;11.0;;;10.0;;
22673;SDS011;11504;43.334;21.918;2023-10-09T21:07:31;11.0;;;10.0;;
22673;SDS011;11504;43.334;21.918;2023-10-09T21:12:07;10.0;;;10.0;;
22673;SDS011;11504;43.334;21.918;2023-10-09T21:16:44;10.0;;;10.0;;
22673;SDS011;11504;43.334;21.918;2023-10-09T21:21:20;10.0;;;10.0;;
22673;SDS011;11504;43.334;21.918;2023-10-09T21:25:57;10.0;;;10.0;;
22673;SDS011;11504;43.334;21.918;2023-10-09T21:39:49;10.0;;;9.0;;
22673;SDS011;11504;43.334;21.918;2023-10-09T21:44:24;10.0;;;9.0;;
22673;SDS011;11504;43.334;21.918;2023-10-09T21:49:01;10.0;;;9.0;;
22673;SDS011;11504;43.334;21.918;2023-10-09T21:53:37;10.0;;;9.0;;
22673;SDS011;11504;43.334;21.918;2023-10-09T21:58:13;10.0;;;9.0;;
22673;SDS011;11504;43.334;21.918;2023-10-09T22:02:49;10.0;;;9.0;;
22673;SDS011;11504;43.334;21.918;2023-10-09T22:07:25;10.0;;;9.0;;
22673;SDS011;11504;43.334;21.918;2023-10-09T22:12:02;10.0;;;9.0;;
22673;SDS011;11504;43.334;21.918;2023-10-09T22:16:38;10.0;;;9.0;;
22673;SDS011;11504;43.334;21.918;2023-10-09T22:21:15;10.0;;;8.0;;
22673;SDS011;11504;43.334;21.918;2023-10-09T22:25:51;10.0;;;8.0;;
22673;SDS011;11504;43.334;21.918;2023-10-09T22:30:28;9.0;;;8.0;;
22673;SDS011;11504;43.334;21.918;2023-10-09T22:35:09;9.0;;;8.0;;
22673;SDS011;11504;43.334;21.918;2023-10-09T22:39:46;8.0;;;8.0;;
22673;SDS011;11504;43.334;21.918;2023-10-09T22:44:23;8.0;;;8.0;;
22673;SDS011;11504;43.334;21.918;2023-10-09T22:49:00;8.0;;;8.0;;
22673;SDS011;11504;43.334;21.918;2023-10-09T22:53:37;8.0;;;7.0;;
22673;SDS011;11504;43.334;21.918;2023-10-09T22:58:14;8.0;;;7.0;;
22673;SDS011;11504;43.334;21.918;2023-10-09T23:02:50;8.0;;;7.0;;
22673;SDS011;11504;43.334;21.918;2023-10-09T23:07:29;8.0;;;7.0;;
22673;SDS011;11504;43.334;21.918;2023-10-09T23:12:06;8.0;;;7.0;;
22673;SDS011;11504;43.334;21.918;2023-10-09T23:16:42;8.0;;;7.0;;
22673;SDS011;11504;43.334;21.918;2023-10-09T23:21:18;8.0;;;7.0;;
22673;SDS011;11504;43.334;21.918;2023-10-09T23:25:55;8.0;;;7.0;;
22673;SDS011;11504;43.334;21.918;2023-10-09T23:39:44;8.0;;;8.0;;
22673;SDS011;11504;43.334;21.918;2023-10-09T23:44:20;8.0;;;8.0;;
22673;SDS011;11504;43.334;21.918;2023-10-09T23:48:57;8.0;;;8.0;;
22673;SDS011;11504;43.334;21.918;2023-10-09T23:53:35;8.0;;;8.0;;
22673;SDS011;11504;43.334;21.918;2023-10-09T23:58:12;8.0;;;8.0;;
